Lian Tong — 9LY2625 — position and weather

sailwx.info

Track history (hours):
 
Tides and Currents Weather Stations Pressure Air Temp Water Temp Dewpoint Dewpoint Depression Visibility Wind Speed Wind Dir Waves Ship Positions

Lian Tong

Last reported at 2017-Oct-03 14:00 UTC. Time now 2017-Oct-17 20:18 UTC.
Position N 34°54' E 139°27'.
Warning: this ship's position is 14 days out of date.

Length 89 m; draft 4.5 m.

Type: Cargo ship. MMSI: 667003428.

Date/timePositionNaut miles runAvg speedWind from/ knotsBaromVisibWave heightAir tempDewpointWater temp
2017-Oct-03 14:00N 34°54' E 139°27'4 7.1
2017-Oct-03 13:30N 34°57' E 139°31'4 8.2
2017-Oct-03 13:00N 34°60' E 139°34'4 8.7
2017-Oct-03 12:30N 35°02' E 139°38'4 8.3
2017-Oct-03 12:00N 35°05' E 139°42'4 8.3
2017-Oct-03 11:30N 35°09' E 139°44'4 8.3
2017-Oct-03 11:00N 35°13' E 139°46'4 8.8
2017-Oct-03 10:30N 35°17' E 139°45'4 8.3
2017-Oct-03 10:00N 35°21' E 139°42'4 8.0
2017-Oct-03 09:30N 35°25' E 139°43'4 8.2
2017-Oct-03 09:00N 35°27' E 139°47'4 7.9
2017-Oct-03 08:28N 35°30' E 139°51'12 0.4
2017-Oct-02 00:11N 35°41' E 139°58'0 0.0
2017-Oct-01 23:53N 35°41' E 139°58'0 0.0
2017-Oct-01 22:35N 35°41' E 139°58'0 0.0
2017-Oct-01 21:23N 35°41' E 139°58'0 0.0
2017-Oct-01 19:59N 35°41' E 139°58'0 0.0
2017-Oct-01 19:23N 35°41' E 139°58'0 0.0
2017-Oct-01 18:53N 35°41' E 139°58'0 0.0
2017-Oct-01 18:23N 35°41' E 139°58'0 0.0
2017-Oct-01 17:41N 35°41' E 139°58'0 0.0
2017-Oct-01 17:29N 35°41' E 139°58'0 0.0
2017-Oct-01 16:41N 35°41' E 139°58'0 0.0
2017-Oct-01 16:23N 35°41' E 139°58'0 0.0
2017-Oct-01 15:53N 35°41' E 139°58'0 0.0
2017-Oct-01 14:53N 35°41' E 139°58'  
2017-Sep-29 05:38N 35°40' E 139°59'0 3.1
2017-Sep-29 05:30N 35°40' E 139°59'3 5.7
2017-Sep-29 04:57N 35°37' E 139°59'0 0.1
2017-Sep-29 04:01N 35°37' E 139°59'0 0.0
2017-Sep-29 03:55N 35°37' E 139°59'0 0.0
2017-Sep-29 03:25N 35°37' E 139°59'0 0.0
2017-Sep-28 18:37N 35°37' E 139°59'0 0.0
2017-Sep-28 10:04N 35°37' E 139°59'0 0.0
2017-Sep-28 06:34N 35°37' E 139°59'0 0.0
2017-Sep-28 06:25N 35°37' E 139°59'0 0.0
2017-Sep-28 05:58N 35°37' E 139°59'0 0.0
2017-Sep-28 05:28N 35°37' E 139°59'0 0.0
2017-Sep-28 04:13N 35°37' E 139°59'0 0.0
2017-Sep-28 01:07N 35°37' E 139°59'0 0.0
2017-Sep-28 00:52N 35°37' E 139°59'0 0.0
2017-Sep-27 22:38N 35°37' E 139°59'0 0.0
2017-Sep-27 22:08N 35°37' E 139°59'0 0.0
2017-Sep-27 22:00N 35°37' E 139°59'0 0.0
2017-Sep-27 21:29N 35°37' E 139°59'0 0.0
2017-Sep-27 21:00N 35°37' E 139°59'0 0.0
2017-Sep-27 20:10N 35°37' E 139°59'0 0.0
2017-Sep-27 19:58N 35°37' E 139°59'0 0.0
2017-Sep-27 19:16N 35°37' E 139°59'0 0.0
2017-Sep-27 16:52N 35°37' E 139°59'0 0.0
2017-Sep-26 07:44N 35°37' E 139°59'1 4.0
2017-Sep-26 07:29N 35°38' E 139°59'  
2017-Sep-23 22:05N 35°41' E 139°59'0 0.0
2017-Sep-23 21:47N 35°41' E 139°59'0 0.0
2017-Sep-23 21:29N 35°41' E 139°59'0 0.0
2017-Sep-23 20:17N 35°41' E 139°59'0 0.0
2017-Sep-23 19:35N 35°41' E 139°59'  
Track history (hours):
 
Tides and Currents Weather Stations Pressure Air Temp Water Temp Dewpoint Dewpoint Depression Visibility Wind Speed Wind Dir Waves Ship Positions

Lian Tong

Last reported at 2017-Oct-03 14:00 UTC. Time now 2017-Oct-17 20:18 UTC.
Position N 34°54' E 139°27'.
Warning: this ship's position is 14 days out of date.

Length 89 m; draft 4.5 m.

Type: Cargo ship. MMSI: 667003428.

Date/timePositionNaut miles runAvg speedWind from/ knotsBaromVisibWave heightAir tempDewpointWater temp
2017-Oct-03 14:00N 34°54' E 139°27'4 7.1
2017-Oct-03 13:30N 34°57' E 139°31'4 8.2
2017-Oct-03 13:00N 34°60' E 139°34'4 8.7
2017-Oct-03 12:30N 35°02' E 139°38'4 8.3
2017-Oct-03 12:00N 35°05' E 139°42'4 8.3
2017-Oct-03 11:30N 35°09' E 139°44'4 8.3
2017-Oct-03 11:00N 35°13' E 139°46'4 8.8
2017-Oct-03 10:30N 35°17' E 139°45'4 8.3
2017-Oct-03 10:00N 35°21' E 139°42'4 8.0
2017-Oct-03 09:30N 35°25' E 139°43'4 8.2
2017-Oct-03 09:00N 35°27' E 139°47'4 7.9
2017-Oct-03 08:28N 35°30' E 139°51'12 0.4
2017-Oct-02 00:11N 35°41' E 139°58'0 0.0
2017-Oct-01 23:53N 35°41' E 139°58'0 0.0
2017-Oct-01 22:35N 35°41' E 139°58'0 0.0
2017-Oct-01 21:23N 35°41' E 139°58'0 0.0
2017-Oct-01 19:59N 35°41' E 139°58'0 0.0
2017-Oct-01 19:23N 35°41' E 139°58'0 0.0
2017-Oct-01 18:53N 35°41' E 139°58'0 0.0
2017-Oct-01 18:23N 35°41' E 139°58'0 0.0
2017-Oct-01 17:41N 35°41' E 139°58'0 0.0
2017-Oct-01 17:29N 35°41' E 139°58'0 0.0
2017-Oct-01 16:41N 35°41' E 139°58'0 0.0
2017-Oct-01 16:23N 35°41' E 139°58'0 0.0
2017-Oct-01 15:53N 35°41' E 139°58'0 0.0
2017-Oct-01 14:53N 35°41' E 139°58'  
2017-Sep-29 05:38N 35°40' E 139°59'0 3.1
2017-Sep-29 05:30N 35°40' E 139°59'3 5.7
2017-Sep-29 04:57N 35°37' E 139°59'0 0.1
2017-Sep-29 04:01N 35°37' E 139°59'0 0.0
2017-Sep-29 03:55N 35°37' E 139°59'0 0.0
2017-Sep-29 03:25N 35°37' E 139°59'0 0.0
2017-Sep-28 18:37N 35°37' E 139°59'0 0.0
2017-Sep-28 10:04N 35°37' E 139°59'0 0.0
2017-Sep-28 06:34N 35°37' E 139°59'0 0.0
2017-Sep-28 06:25N 35°37' E 139°59'0 0.0
2017-Sep-28 05:58N 35°37' E 139°59'0 0.0
2017-Sep-28 05:28N 35°37' E 139°59'0 0.0
2017-Sep-28 04:13N 35°37' E 139°59'0 0.0
2017-Sep-28 01:07N 35°37' E 139°59'0 0.0
2017-Sep-28 00:52N 35°37' E 139°59'0 0.0
2017-Sep-27 22:38N 35°37' E 139°59'0 0.0
2017-Sep-27 22:08N 35°37' E 139°59'0 0.0
2017-Sep-27 22:00N 35°37' E 139°59'0 0.0
2017-Sep-27 21:29N 35°37' E 139°59'0 0.0
2017-Sep-27 21:00N 35°37' E 139°59'0 0.0
2017-Sep-27 20:10N 35°37' E 139°59'0 0.0
2017-Sep-27 19:58N 35°37' E 139°59'0 0.0
2017-Sep-27 19:16N 35°37' E 139°59'0 0.0
2017-Sep-27 16:52N 35°37' E 139°59'0 0.0
2017-Sep-26 07:44N 35°37' E 139°59'1 4.0
2017-Sep-26 07:29N 35°38' E 139°59'  
2017-Sep-23 22:05N 35°41' E 139°59'0 0.0
2017-Sep-23 21:47N 35°41' E 139°59'0 0.0
2017-Sep-23 21:29N 35°41' E 139°59'0 0.0
2017-Sep-23 20:17N 35°41' E 139°59'0 0.0
2017-Sep-23 19:35N 35°41' E 139°59'  

Dump ship's entire track history